Terminal Aerodrome Forecast
Issued by NWS

Home | Current Version | Previous Version | Text Only | Print | Product List | Glossary On
Versions: 1 2 3 4 5 6 7 8 9 10 11 12 13 14 15 16 17 18 19 20 21 22 23 24
000
FTAK31 PANC 100528
TAFAHO
TAF
PAHO 100528Z 1006/1106 VRB04KT P6SM -RA SCT040 OVC060
     FM100800 07008KT 6SM -RA BR OVC025
     FM101200 07011KT 6SM -RA BR BKN015 OVC025=

USA.gov is the U.S. government's official web portal to all federal, state and local government web resources and services.